sensor_id;sensor_type;location;lat;lon;timestamp;pressure;altitude;pressure_sealevel;temperature;humidity
44148;BME280;29810;55.848;37.368;2022-08-21T00:01:22;100005.66;;;17.58;42.95
44148;BME280;29810;55.848;37.368;2022-08-21T00:04:24;100007.72;;;17.52;43.35
44148;BME280;29810;55.848;37.368;2022-08-21T00:07:26;99995.63;;;17.48;43.19
44148;BME280;29810;55.848;37.368;2022-08-21T00:10:27;99998.66;;;17.41;43.23
44148;BME280;29810;55.848;37.368;2022-08-21T00:13:29;99989.91;;;17.40;43.26
44148;BME280;29810;55.848;37.368;2022-08-21T00:16:31;99998.59;;;17.42;43.16
44148;BME280;29810;55.848;37.368;2022-08-21T00:19:33;99992.53;;;17.40;43.27
44148;BME280;29810;55.848;37.368;2022-08-21T00:22:36;99989.22;;;17.36;43.18
44148;BME280;29810;55.848;37.368;2022-08-21T00:25:37;99992.09;;;17.32;43.36
44148;BME280;29810;55.848;37.368;2022-08-21T00:28:39;99993.19;;;17.28;43.36
44148;BME280;29810;55.848;37.368;2022-08-21T00:31:42;99992.66;;;17.21;43.68
44148;BME280;29810;55.848;37.368;2022-08-21T00:34:44;99991.28;;;17.14;43.99
44148;BME280;29810;55.848;37.368;2022-08-21T00:37:45;99992.47;;;17.08;44.06
44148;BME280;29810;55.848;37.368;2022-08-21T00:40:59;99998.03;;;17.02;44.20
44148;BME280;29810;55.848;37.368;2022-08-21T00:44:01;99991.34;;;16.95;44.74
44148;BME280;29810;55.848;37.368;2022-08-21T00:47:03;99987.19;;;16.91;44.65
44148;BME280;29810;55.848;37.368;2022-08-21T00:50:07;99985.59;;;16.86;44.77
44148;BME280;29810;55.848;37.368;2022-08-21T00:53:10;99993.69;;;16.83;44.81
44148;BME280;29810;55.848;37.368;2022-08-21T00:56:13;99985.16;;;16.78;45.04
44148;BME280;29810;55.848;37.368;2022-08-21T00:59:16;99971.19;;;16.76;44.97
44148;BME280;29810;55.848;37.368;2022-08-21T01:02:19;99981.81;;;16.75;45.01
44148;BME280;29810;55.848;37.368;2022-08-21T01:05:21;99980.34;;;16.69;45.06
44148;BME280;29810;55.848;37.368;2022-08-21T01:08:23;99982.41;;;16.62;45.27
44148;BME280;29810;55.848;37.368;2022-08-21T01:11:26;99987.94;;;16.58;45.39
44148;BME280;29810;55.848;37.368;2022-08-21T01:14:27;99984.66;;;16.52;45.44
44148;BME280;29810;55.848;37.368;2022-08-21T01:17:30;99983.25;;;16.45;45.49
44148;BME280;29810;55.848;37.368;2022-08-21T01:20:34;99988.38;;;16.48;45.54
44148;BME280;29810;55.848;37.368;2022-08-21T01:23:38;99985.28;;;16.40;45.70
44148;BME280;29810;55.848;37.368;2022-08-21T01:26:41;99996.56;;;16.42;45.83
44148;BME280;29810;55.848;37.368;2022-08-21T01:29:57;99991.47;;;16.39;45.92
44148;BME280;29810;55.848;37.368;2022-08-21T01:32:58;99992.56;;;16.35;46.10
44148;BME280;29810;55.848;37.368;2022-08-21T01:36:00;99991.97;;;16.28;46.28
44148;BME280;29810;55.848;37.368;2022-08-21T01:39:03;99988.56;;;16.26;46.37
44148;BME280;29810;55.848;37.368;2022-08-21T01:42:06;99992.38;;;16.20;46.80
44148;BME280;29810;55.848;37.368;2022-08-21T01:45:08;99989.09;;;16.15;46.64
44148;BME280;29810;55.848;37.368;2022-08-21T01:48:10;99980.56;;;16.10;46.85
44148;BME280;29810;55.848;37.368;2022-08-21T01:51:11;99985.03;;;16.08;46.80
44148;BME280;29810;55.848;37.368;2022-08-21T01:54:13;99977.44;;;16.02;46.91
44148;BME280;29810;55.848;37.368;2022-08-21T01:57:14;99985.31;;;16.02;46.64
44148;BME280;29810;55.848;37.368;2022-08-21T02:00:20;99980.13;;;16.00;46.86
44148;BME280;29810;55.848;37.368;2022-08-21T02:03:24;99978.31;;;16.02;46.87
44148;BME280;29810;55.848;37.368;2022-08-21T02:06:26;99988.91;;;16.01;46.78
44148;BME280;29810;55.848;37.368;2022-08-21T02:09:28;99976.78;;;15.97;46.85
44148;BME280;29810;55.848;37.368;2022-08-21T02:12:29;99981.22;;;15.96;46.99
44148;BME280;29810;55.848;37.368;2022-08-21T02:15:51;99986.28;;;16.01;46.74
44148;BME280;29810;55.848;37.368;2022-08-21T02:18:53;99977.87;;;15.93;46.68
44148;BME280;29810;55.848;37.368;2022-08-21T02:21:54;99994.37;;;15.96;46.66
44148;BME280;29810;55.848;37.368;2022-08-21T02:24:56;99968.69;;;15.82;46.70
44148;BME280;29810;55.848;37.368;2022-08-21T02:27:58;99998.47;;;16.02;46.44
44148;BME280;29810;55.848;37.368;2022-08-21T02:31:01;99992.28;;;16.03;46.45
44148;BME280;29810;55.848;37.368;2022-08-21T02:34:03;99993.94;;;16.05;46.41
44148;BME280;29810;55.848;37.368;2022-08-21T02:37:05;99994.41;;;16.14;46.04
44148;BME280;29810;55.848;37.368;2022-08-21T02:40:07;99988.31;;;16.13;46.17
44148;BME280;29810;55.848;37.368;2022-08-21T02:43:11;99985.16;;;16.24;45.71
44148;BME280;29810;55.848;37.368;2022-08-21T02:46:16;99991.75;;;16.33;45.64
44148;BME280;29810;55.848;37.368;2022-08-21T02:49:18;99990.59;;;16.38;45.45
44148;BME280;29810;55.848;37.368;2022-08-21T02:52:20;99996.28;;;16.48;45.33
44148;BME280;29810;55.848;37.368;2022-08-21T02:55:25;99992.41;;;16.55;45.15
44148;BME280;29810;55.848;37.368;2022-08-21T02:58:31;99990.31;;;16.62;45.03
44148;BME280;29810;55.848;37.368;2022-08-21T03:01:34;99991.50;;;16.74;44.81
44148;BME280;29810;55.848;37.368;2022-08-21T03:04:35;99988.47;;;16.82;44.40
44148;BME280;29810;55.848;37.368;2022-08-21T03:07:37;99991.22;;;16.98;44.11
44148;BME280;29810;55.848;37.368;2022-08-21T03:10:43;99994.13;;;17.09;43.86
44148;BME280;29810;55.848;37.368;2022-08-21T03:13:45;100003.78;;;17.26;43.38
44148;BME280;29810;55.848;37.368;2022-08-21T03:16:46;99999.34;;;17.44;42.89
44148;BME280;29810;55.848;37.368;2022-08-21T03:19:48;100000.34;;;17.59;42.77
44148;BME280;29810;55.848;37.368;2022-08-21T03:22:51;100005.03;;;17.70;42.22
44148;BME280;29810;55.848;37.368;2022-08-21T03:25:53;100001.56;;;17.85;41.92
44148;BME280;29810;55.848;37.368;2022-08-21T03:28:54;100007.19;;;17.95;42.04
44148;BME280;29810;55.848;37.368;2022-08-21T03:31:57;100003.53;;;17.98;41.97
44148;BME280;29810;55.848;37.368;2022-08-21T03:34:59;100009.78;;;18.13;41.52
44148;BME280;29810;55.848;37.368;2022-08-21T03:38:01;100003.63;;;18.28;41.32
44148;BME280;29810;55.848;37.368;2022-08-21T03:41:04;99987.19;;;18.39;41.05
44148;BME280;29810;55.848;37.368;2022-08-21T03:44:06;100001.94;;;18.58;40.68
44148;BME280;29810;55.848;37.368;2022-08-21T03:47:07;100000.03;;;18.76;40.53
44148;BME280;29810;55.848;37.368;2022-08-21T03:50:09;100001.97;;;19.18;39.43
44148;BME280;29810;55.848;37.368;2022-08-21T03:53:11;99994.44;;;20.66;36.70
44148;BME280;29810;55.848;37.368;2022-08-21T03:56:13;99990.56;;;22.12;34.00
44148;BME280;29810;55.848;37.368;2022-08-21T03:59:15;99983.97;;;22.42;33.46
44148;BME280;29810;55.848;37.368;2022-08-21T04:02:20;99977.56;;;22.69;32.90
44148;BME280;29810;55.848;37.368;2022-08-21T04:05:22;99978.44;;;23.17;31.28
44148;BME280;29810;55.848;37.368;2022-08-21T04:08:31;99979.00;;;22.97;31.72
44148;BME280;29810;55.848;37.368;2022-08-21T04:11:32;99979.66;;;23.24;31.69
44148;BME280;29810;55.848;37.368;2022-08-21T04:14:33;99975.78;;;23.51;30.76
44148;BME280;29810;55.848;37.368;2022-08-21T04:17:35;99956.28;;;23.84;30.14
44148;BME280;29810;55.848;37.368;2022-08-21T04:20:37;99971.97;;;24.75;29.08
44148;BME280;29810;55.848;37.368;2022-08-21T04:23:39;99963.81;;;25.19;27.76
44148;BME280;29810;55.848;37.368;2022-08-21T04:26:40;99968.47;;;24.74;28.68
44148;BME280;29810;55.848;37.368;2022-08-21T04:29:42;99974.41;;;24.78;28.81
44148;BME280;29810;55.848;37.368;2022-08-21T04:32:46;99972.31;;;25.03;28.17
44148;BME280;29810;55.848;37.368;2022-08-21T04:35:49;99974.78;;;24.62;29.14
44148;BME280;29810;55.848;37.368;2022-08-21T04:38:50;99969.66;;;24.17;29.59
44148;BME280;29810;55.848;37.368;2022-08-21T04:41:52;99968.94;;;24.79;28.90
44148;BME280;29810;55.848;37.368;2022-08-21T04:44:55;99965.63;;;25.90;27.26
44148;BME280;29810;55.848;37.368;2022-08-21T04:47:59;99971.50;;;25.64;27.04
44148;BME280;29810;55.848;37.368;2022-08-21T04:51:13;99969.53;;;26.17;26.80
44148;BME280;29810;55.848;37.368;2022-08-21T04:54:20;99962.00;;;28.02;24.98
44148;BME280;29810;55.848;37.368;2022-08-21T04:57:22;99961.09;;;29.44;22.70
44148;BME280;29810;55.848;37.368;2022-08-21T05:00:24;99949.44;;;30.46;21.63
44148;BME280;29810;55.848;37.368;2022-08-21T05:03:26;99948.31;;;31.37;20.43
44148;BME280;29810;55.848;37.368;2022-08-21T05:06:30;99949.09;;;31.86;19.65
44148;BME280;29810;55.848;37.368;2022-08-21T05:09:34;99945.91;;;32.37;19.32
44148;BME280;29810;55.848;37.368;2022-08-21T05:12:36;99945.47;;;32.86;18.80
44148;BME280;29810;55.848;37.368;2022-08-21T05:15:38;99938.81;;;32.59;18.69
44148;BME280;29810;55.848;37.368;2022-08-21T05:18:40;99942.88;;;33.23;18.24
44148;BME280;29810;55.848;37.368;2022-08-21T05:21:43;99944.56;;;32.56;18.66
44148;BME280;29810;55.848;37.368;2022-08-21T05:24:45;99948.37;;;29.97;20.92
44148;BME280;29810;55.848;37.368;2022-08-21T05:27:47;99950.66;;;27.24;24.37
44148;BME280;29810;55.848;37.368;2022-08-21T05:30:49;99954.19;;;26.19;25.84
44148;BME280;29810;55.848;37.368;2022-08-21T05:33:50;99953.84;;;27.48;24.29
44148;BME280;29810;55.848;37.368;2022-08-21T05:36:52;99957.44;;;29.88;21.55
44148;BME280;29810;55.848;37.368;2022-08-21T05:39:53;99940.84;;;31.08;19.86
44148;BME280;29810;55.848;37.368;2022-08-21T05:42:55;99945.19;;;31.97;18.96
44148;BME280;29810;55.848;37.368;2022-08-21T05:45:57;99947.94;;;32.12;18.41
44148;BME280;29810;55.848;37.368;2022-08-21T05:48:58;99923.75;;;31.95;18.52
44148;BME280;29810;55.848;37.368;2022-08-21T05:52:00;99941.09;;;31.30;19.06
44148;BME280;29810;55.848;37.368;2022-08-21T05:55:03;99944.00;;;31.20;19.11
44148;BME280;29810;55.848;37.368;2022-08-21T05:58:04;99953.81;;;31.04;19.20
44148;BME280;29810;55.848;37.368;2022-08-21T06:01:07;99948.94;;;31.48;19.15
44148;BME280;29810;55.848;37.368;2022-08-21T06:04:10;99947.37;;;31.14;19.45
44148;BME280;29810;55.848;37.368;2022-08-21T06:07:11;99946.88;;;31.10;19.29
44148;BME280;29810;55.848;37.368;2022-08-21T06:10:13;99944.56;;;31.47;19.02
44148;BME280;29810;55.848;37.368;2022-08-21T06:13:16;99937.59;;;31.21;19.14
44148;BME280;29810;55.848;37.368;2022-08-21T06:16:18;99944.69;;;29.47;20.92
44148;BME280;29810;55.848;37.368;2022-08-21T06:19:19;99951.34;;;27.92;22.19
44148;BME280;29810;55.848;37.368;2022-08-21T06:22:21;99955.16;;;26.47;23.51
44148;BME280;29810;55.848;37.368;2022-08-21T06:25:23;99957.06;;;25.45;24.71
44148;BME280;29810;55.848;37.368;2022-08-21T06:28:25;99954.34;;;24.84;25.71
44148;BME280;29810;55.848;37.368;2022-08-21T06:31:28;99960.41;;;24.64;26.51
44148;BME280;29810;55.848;37.368;2022-08-21T06:34:30;99957.88;;;24.63;26.11
44148;BME280;29810;55.848;37.368;2022-08-21T06:37:33;99950.16;;;24.48;26.02
44148;BME280;29810;55.848;37.368;2022-08-21T06:40:35;99954.34;;;24.30;26.29
44148;BME280;29810;55.848;37.368;2022-08-21T06:43:36;99944.34;;;24.11;26.65
44148;BME280;29810;55.848;37.368;2022-08-21T06:46:38;99947.63;;;24.14;26.25
44148;BME280;29810;55.848;37.368;2022-08-21T06:49:40;99946.47;;;23.96;26.41
44148;BME280;29810;55.848;37.368;2022-08-21T06:52:41;99955.28;;;23.96;26.29
44148;BME280;29810;55.848;37.368;2022-08-21T06:55:43;99950.44;;;24.02;26.16
44148;BME280;29810;55.848;37.368;2022-08-21T06:58:45;99951.31;;;23.91;26.69
44148;BME280;29810;55.848;37.368;2022-08-21T07:01:46;99937.78;;;23.71;26.59
44148;BME280;29810;55.848;37.368;2022-08-21T07:04:48;99946.59;;;23.72;26.29
44148;BME280;29810;55.848;37.368;2022-08-21T07:07:49;99945.28;;;23.77;26.45
44148;BME280;29810;55.848;37.368;2022-08-21T07:10:53;99934.63;;;23.77;26.48
44148;BME280;29810;55.848;37.368;2022-08-21T07:13:55;99938.97;;;23.78;26.13
44148;BME280;29810;55.848;37.368;2022-08-21T07:16:57;99946.00;;;23.91;25.98
44148;BME280;29810;55.848;37.368;2022-08-21T07:19:59;99940.13;;;24.08;25.84
44148;BME280;29810;55.848;37.368;2022-08-21T07:23:04;99940.94;;;24.20;25.62
44148;BME280;29810;55.848;37.368;2022-08-21T07:26:07;99924.06;;;24.10;25.35
44148;BME280;29810;55.848;37.368;2022-08-21T07:29:09;99932.91;;;23.99;25.63
44148;BME280;29810;55.848;37.368;2022-08-21T07:32:10;99927.84;;;23.96;25.79
44148;BME280;29810;55.848;37.368;2022-08-21T07:35:12;99928.94;;;23.93;25.65
44148;BME280;29810;55.848;37.368;2022-08-21T07:38:13;99933.16;;;23.96;25.77
44148;BME280;29810;55.848;37.368;2022-08-21T07:41:18;99914.78;;;23.93;25.64
44148;BME280;29810;55.848;37.368;2022-08-21T07:44:24;99945.16;;;23.90;25.88
44148;BME280;29810;55.848;37.368;2022-08-21T07:47:26;99945.75;;;23.94;25.92
44148;BME280;29810;55.848;37.368;2022-08-21T07:50:27;99941.13;;;24.07;25.41
44148;BME280;29810;55.848;37.368;2022-08-21T07:53:29;99933.25;;;24.06;24.99
44148;BME280;29810;55.848;37.368;2022-08-21T07:56:31;99936.28;;;24.01;25.03
44148;BME280;29810;55.848;37.368;2022-08-21T07:59:33;99940.13;;;24.08;24.38
44148;BME280;29810;55.848;37.368;2022-08-21T08:02:34;99929.94;;;24.13;24.42
44148;BME280;29810;55.848;37.368;2022-08-21T08:05:36;99934.78;;;24.20;24.47
44148;BME280;29810;55.848;37.368;2022-08-21T08:08:39;99932.44;;;24.26;24.05
44148;BME280;29810;55.848;37.368;2022-08-21T08:11:42;99931.44;;;24.39;23.92
44148;BME280;29810;55.848;37.368;2022-08-21T08:14:46;99928.84;;;24.48;23.84
44148;BME280;29810;55.848;37.368;2022-08-21T08:17:48;99915.41;;;24.71;23.86
44148;BME280;29810;55.848;37.368;2022-08-21T08:20:50;99909.75;;;24.86;23.64
44148;BME280;29810;55.848;37.368;2022-08-21T08:23:52;99904.16;;;24.89;23.47
44148;BME280;29810;55.848;37.368;2022-08-21T08:26:53;99909.47;;;24.89;23.12
44148;BME280;29810;55.848;37.368;2022-08-21T08:29:55;99902.06;;;24.71;22.88
44148;BME280;29810;55.848;37.368;2022-08-21T08:32:57;99890.84;;;24.68;23.28
44148;BME280;29810;55.848;37.368;2022-08-21T08:35:59;99901.81;;;24.74;23.29
44148;BME280;29810;55.848;37.368;2022-08-21T08:39:02;99886.97;;;24.82;23.03
44148;BME280;29810;55.848;37.368;2022-08-21T08:42:08;99892.97;;;24.95;23.03
44148;BME280;29810;55.848;37.368;2022-08-21T08:45:18;99885.75;;;25.17;22.53
44148;BME280;29810;55.848;37.368;2022-08-21T08:48:39;99879.34;;;25.29;22.31
44148;BME280;29810;55.848;37.368;2022-08-21T08:51:44;99879.06;;;25.32;22.23
44148;BME280;29810;55.848;37.368;2022-08-21T08:54:57;99885.66;;;25.28;22.15
44148;BME280;29810;55.848;37.368;2022-08-21T08:58:02;99891.91;;;25.38;21.76
44148;BME280;29810;55.848;37.368;2022-08-21T09:01:11;99892.78;;;25.49;21.79
44148;BME280;29810;55.848;37.368;2022-08-21T09:04:21;99886.09;;;25.33;22.04
44148;BME280;29810;55.848;37.368;2022-08-21T09:07:47;99889.28;;;25.27;21.81
44148;BME280;29810;55.848;37.368;2022-08-21T09:11:01;99896.25;;;25.39;21.32
44148;BME280;29810;55.848;37.368;2022-08-21T09:14:24;99886.69;;;25.37;21.78
44148;BME280;29810;55.848;37.368;2022-08-21T09:17:54;99882.06;;;25.39;21.72
44148;BME280;29810;55.848;37.368;2022-08-21T09:21:08;99887.03;;;25.63;21.44
44148;BME280;29810;55.848;37.368;2022-08-21T09:27:32;99888.22;;;26.00;21.51
44148;BME280;29810;55.848;37.368;2022-08-21T09:30:34;99872.44;;;25.96;21.16
44148;BME280;29810;55.848;37.368;2022-08-21T09:33:36;99871.03;;;25.92;21.01
44148;BME280;29810;55.848;37.368;2022-08-21T09:36:47;99875.69;;;26.00;20.25
44148;BME280;29810;55.848;37.368;2022-08-21T09:39:49;99873.75;;;26.12;20.02
44148;BME280;29810;55.848;37.368;2022-08-21T09:42:55;99869.81;;;26.16;19.30
44148;BME280;29810;55.848;37.368;2022-08-21T09:46:25;99873.81;;;26.59;18.94
44148;BME280;29810;55.848;37.368;2022-08-21T09:49:36;99857.66;;;27.08;18.91
44148;BME280;29810;55.848;37.368;2022-08-21T09:53:04;99861.16;;;27.37;18.59
44148;BME280;29810;55.848;37.368;2022-08-21T09:56:17;99863.81;;;27.47;18.48
44148;BME280;29810;55.848;37.368;2022-08-21T09:59:38;99869.97;;;27.75;18.49
44148;BME280;29810;55.848;37.368;2022-08-21T10:02:40;99857.03;;;27.70;18.38
44148;BME280;29810;55.848;37.368;2022-08-21T10:06:01;99865.97;;;27.61;18.51
44148;BME280;29810;55.848;37.368;2022-08-21T10:12:18;99882.88;;;27.43;18.45
44148;BME280;29810;55.848;37.368;2022-08-21T10:25:57;99856.09;;;27.80;17.48
44148;BME280;29810;55.848;37.368;2022-08-21T10:29:39;99847.03;;;27.90;17.73
44148;BME280;29810;55.848;37.368;2022-08-21T10:39:35;99861.31;;;27.63;18.69
44148;BME280;29810;55.848;37.368;2022-08-21T10:43:13;99849.75;;;27.63;18.76
44148;BME280;29810;55.848;37.368;2022-08-21T10:46:39;99852.53;;;27.89;18.82
44148;BME280;29810;55.848;37.368;2022-08-21T10:56:21;99843.56;;;27.98;18.94
44148;BME280;29810;55.848;37.368;2022-08-21T10:59:29;99839.50;;;27.94;19.11
44148;BME280;29810;55.848;37.368;2022-08-21T11:02:36;99841.28;;;27.67;19.21
44148;BME280;29810;55.848;37.368;2022-08-21T11:05:45;99828.97;;;27.56;19.27
44148;BME280;29810;55.848;37.368;2022-08-21T11:08:52;99837.38;;;27.62;19.19
44148;BME280;29810;55.848;37.368;2022-08-21T11:12:00;99831.63;;;27.74;19.41
44148;BME280;29810;55.848;37.368;2022-08-21T11:18:42;99833.47;;;27.92;19.56
44148;BME280;29810;55.848;37.368;2022-08-21T11:25:23;99829.34;;;28.16;19.28
44148;BME280;29810;55.848;37.368;2022-08-21T11:28:42;99829.94;;;28.09;19.49
44148;BME280;29810;55.848;37.368;2022-08-21T11:38:36;99838.66;;;27.39;19.65
44148;BME280;29810;55.848;37.368;2022-08-21T11:41:47;99841.34;;;27.30;19.34
44148;BME280;29810;55.848;37.368;2022-08-21T11:45:13;99840.13;;;27.24;19.42
44148;BME280;29810;55.848;37.368;2022-08-21T11:55:23;99833.84;;;27.33;18.69
44148;BME280;29810;55.848;37.368;2022-08-21T12:01:39;99821.31;;;27.06;18.79
44148;BME280;29810;55.848;37.368;2022-08-21T12:04:52;99827.31;;;26.90;19.20
44148;BME280;29810;55.848;37.368;2022-08-21T12:08:09;99827.38;;;26.70;19.31
44148;BME280;29810;55.848;37.368;2022-08-21T12:14:18;99819.72;;;26.28;20.21
44148;BME280;29810;55.848;37.368;2022-08-21T12:17:26;99814.66;;;26.25;20.39
44148;BME280;29810;55.848;37.368;2022-08-21T12:20:40;99811.16;;;26.15;20.58
44148;BME280;29810;55.848;37.368;2022-08-21T12:23:57;99802.47;;;26.12;20.58
44148;BME280;29810;55.848;37.368;2022-08-21T12:27:53;99796.00;;;26.15;20.76
44148;BME280;29810;55.848;37.368;2022-08-21T12:30:50;99795.69;;;26.18;20.75
44148;BME280;29810;55.848;37.368;2022-08-21T12:33:58;99797.69;;;26.06;20.67
44148;BME280;29810;55.848;37.368;2022-08-21T12:37:06;99802.16;;;25.96;20.89
44148;BME280;29810;55.848;37.368;2022-08-21T12:40:30;99791.22;;;25.89;20.75
44148;BME280;29810;55.848;37.368;2022-08-21T12:43:37;99797.53;;;25.98;20.85
44148;BME280;29810;55.848;37.368;2022-08-21T12:46:46;99794.72;;;26.00;20.87
44148;BME280;29810;55.848;37.368;2022-08-21T12:53:15;99796.00;;;26.15;21.06
44148;BME280;29810;55.848;37.368;2022-08-21T12:56:31;99796.28;;;26.22;21.10
44148;BME280;29810;55.848;37.368;2022-08-21T12:59:37;99796.53;;;26.19;21.20
44148;BME280;29810;55.848;37.368;2022-08-21T13:02:45;99797.94;;;26.23;21.17
44148;BME280;29810;55.848;37.368;2022-08-21T13:05:47;99791.19;;;26.28;21.23
44148;BME280;29810;55.848;37.368;2022-08-21T13:08:56;99789.06;;;26.32;21.08
44148;BME280;29810;55.848;37.368;2022-08-21T13:11:59;99794.13;;;26.35;21.01
44148;BME280;29810;55.848;37.368;2022-08-21T13:15:04;99772.63;;;26.27;20.93
44148;BME280;29810;55.848;37.368;2022-08-21T13:18:06;99796.94;;;26.24;20.69
44148;BME280;29810;55.848;37.368;2022-08-21T13:21:13;99794.00;;;26.17;20.70
44148;BME280;29810;55.848;37.368;2022-08-21T13:24:27;99790.38;;;26.18;20.64
44148;BME280;29810;55.848;37.368;2022-08-21T13:27:30;99790.94;;;26.12;20.81
44148;BME280;29810;55.848;37.368;2022-08-21T13:30:31;99793.19;;;26.07;20.92
44148;BME280;29810;55.848;37.368;2022-08-21T13:33:33;99788.13;;;26.04;21.14
44148;BME280;29810;55.848;37.368;2022-08-21T13:36:39;99789.22;;;26.01;21.26
44148;BME280;29810;55.848;37.368;2022-08-21T13:39:49;99796.84;;;26.06;21.42
44148;BME280;29810;55.848;37.368;2022-08-21T13:42:51;99782.19;;;26.20;21.42
44148;BME280;29810;55.848;37.368;2022-08-21T13:45:55;99785.16;;;26.17;21.38
44148;BME280;29810;55.848;37.368;2022-08-21T13:48:59;99784.44;;;26.15;21.47
44148;BME280;29810;55.848;37.368;2022-08-21T13:52:01;99773.50;;;26.18;21.38
44148;BME280;29810;55.848;37.368;2022-08-21T13:55:15;99785.16;;;26.17;21.41
44148;BME280;29810;55.848;37.368;2022-08-21T13:58:29;99778.69;;;26.19;21.41
44148;BME280;29810;55.848;37.368;2022-08-21T14:01:38;99782.91;;;26.22;21.45
44148;BME280;29810;55.848;37.368;2022-08-21T14:04:51;99776.75;;;26.11;21.22
44148;BME280;29810;55.848;37.368;2022-08-21T14:08:10;99777.97;;;26.17;21.50
44148;BME280;29810;55.848;37.368;2022-08-21T14:11:13;99779.09;;;26.15;21.55
44148;BME280;29810;55.848;37.368;2022-08-21T14:14:31;99770.69;;;26.09;21.42
44148;BME280;29810;55.848;37.368;2022-08-21T14:17:36;99765.28;;;26.29;21.31
44148;BME280;29810;55.848;37.368;2022-08-21T14:20:39;99757.16;;;26.21;21.19
44148;BME280;29810;55.848;37.368;2022-08-21T14:23:40;99765.59;;;26.26;21.32
44148;BME280;29810;55.848;37.368;2022-08-21T14:26:54;99762.34;;;26.32;21.20
44148;BME280;29810;55.848;37.368;2022-08-21T14:30:09;99771.75;;;26.36;21.11
44148;BME280;29810;55.848;37.368;2022-08-21T14:33:28;99757.28;;;26.29;20.83
44148;BME280;29810;55.848;37.368;2022-08-21T14:36:30;99775.31;;;26.27;21.28
44148;BME280;29810;55.848;37.368;2022-08-21T14:39:32;99776.16;;;26.18;20.90
44148;BME280;29810;55.848;37.368;2022-08-21T14:42:34;99765.06;;;26.12;21.07
44148;BME280;29810;55.848;37.368;2022-08-21T14:45:36;99767.03;;;26.10;21.04
44148;BME280;29810;55.848;37.368;2022-08-21T14:48:40;99774.34;;;26.08;21.03
44148;BME280;29810;55.848;37.368;2022-08-21T14:51:41;99767.19;;;25.89;21.19
44148;BME280;29810;55.848;37.368;2022-08-21T14:54:43;99778.56;;;25.82;21.50
44148;BME280;29810;55.848;37.368;2022-08-21T14:57:48;99770.97;;;25.77;21.51
44148;BME280;29810;55.848;37.368;2022-08-21T15:00:52;99764.22;;;25.73;21.48
44148;BME280;29810;55.848;37.368;2022-08-21T15:03:55;99775.91;;;25.62;21.62
44148;BME280;29810;55.848;37.368;2022-08-21T15:06:56;99759.75;;;25.54;21.71
44148;BME280;29810;55.848;37.368;2022-08-21T15:09:58;99771.81;;;25.58;21.84
44148;BME280;29810;55.848;37.368;2022-08-21T15:13:00;99767.59;;;25.55;22.00
44148;BME280;29810;55.848;37.368;2022-08-21T15:16:03;99766.06;;;25.53;22.13
44148;BME280;29810;55.848;37.368;2022-08-21T15:19:05;99771.81;;;25.48;22.32
44148;BME280;29810;55.848;37.368;2022-08-21T15:22:06;99762.25;;;25.45;22.39
44148;BME280;29810;55.848;37.368;2022-08-21T15:25:08;99756.06;;;25.35;22.56
44148;BME280;29810;55.848;37.368;2022-08-21T15:28:11;99771.53;;;25.41;22.63
44148;BME280;29810;55.848;37.368;2022-08-21T15:31:13;99775.44;;;25.37;22.79
44148;BME280;29810;55.848;37.368;2022-08-21T15:34:15;99768.16;;;25.39;22.79
44148;BME280;29810;55.848;37.368;2022-08-21T15:37:18;99765.91;;;25.35;22.87
44148;BME280;29810;55.848;37.368;2022-08-21T15:40:20;99771.59;;;25.30;23.00
44148;BME280;29810;55.848;37.368;2022-08-21T15:43:27;99766.13;;;25.22;23.16
44148;BME280;29810;55.848;37.368;2022-08-21T15:46:29;99762.88;;;25.18;22.95
44148;BME280;29810;55.848;37.368;2022-08-21T15:49:32;99759.25;;;25.09;23.08
44148;BME280;29810;55.848;37.368;2022-08-21T15:52:34;99759.63;;;24.95;23.26
44148;BME280;29810;55.848;37.368;2022-08-21T15:55:36;99755.09;;;24.86;23.27
44148;BME280;29810;55.848;37.368;2022-08-21T15:58:38;99758.31;;;24.79;23.09
44148;BME280;29810;55.848;37.368;2022-08-21T16:01:40;99759.66;;;24.74;23.32
44148;BME280;29810;55.848;37.368;2022-08-21T16:04:42;99765.16;;;24.72;23.71
44148;BME280;29810;55.848;37.368;2022-08-21T16:07:45;99750.56;;;24.76;26.08
44148;BME280;29810;55.848;37.368;2022-08-21T16:10:48;99758.44;;;24.78;24.75
44148;BME280;29810;55.848;37.368;2022-08-21T16:13:49;99749.87;;;24.74;23.92
44148;BME280;29810;55.848;37.368;2022-08-21T16:16:52;99735.91;;;24.61;23.80
44148;BME280;29810;55.848;37.368;2022-08-21T16:19:55;99754.78;;;24.48;24.11
44148;BME280;29810;55.848;37.368;2022-08-21T16:22:57;99750.81;;;24.42;24.51
44148;BME280;29810;55.848;37.368;2022-08-21T16:25:59;99748.44;;;24.39;24.39
44148;BME280;29810;55.848;37.368;2022-08-21T16:29:02;99747.44;;;24.40;24.37
44148;BME280;29810;55.848;37.368;2022-08-21T16:32:05;99757.22;;;24.30;24.55
44148;BME280;29810;55.848;37.368;2022-08-21T16:35:10;99744.41;;;24.24;24.75
44148;BME280;29810;55.848;37.368;2022-08-21T16:38:13;99741.16;;;24.20;24.73
44148;BME280;29810;55.848;37.368;2022-08-21T16:41:17;99728.78;;;24.09;24.83
44148;BME280;29810;55.848;37.368;2022-08-21T16:44:20;99740.16;;;24.11;24.96
44148;BME280;29810;55.848;37.368;2022-08-21T16:47:23;99734.25;;;24.08;25.07
44148;BME280;29810;55.848;37.368;2022-08-21T16:50:24;99740.94;;;24.02;25.24
44148;BME280;29810;55.848;37.368;2022-08-21T16:53:26;99723.78;;;23.95;25.32
44148;BME280;29810;55.848;37.368;2022-08-21T16:56:28;99735.25;;;23.95;25.38
44148;BME280;29810;55.848;37.368;2022-08-21T16:59:30;99721.13;;;23.95;25.59
44148;BME280;29810;55.848;37.368;2022-08-21T17:02:35;99737.28;;;24.03;25.71
44148;BME280;29810;55.848;37.368;2022-08-21T17:05:37;99743.84;;;23.99;25.88
44148;BME280;29810;55.848;37.368;2022-08-21T17:08:39;99739.38;;;24.00;25.94